Time;durP1;ratioP1;P1;durP2;ratioP2;P2;SDS_P1;SDS_P2;PMS_P1;PMS_P2;Temp;Humidity;BMP_temperature;BMP_pressure;BME280_temperature;BME280_humidity;BME280_pressure;Samples;Min_cycle;Max_cycle;Signal;HPM_P1;HPM_P2
2022/04/14 00:01:26;;;;;;;15.98;9.88;;;12.10;99.90;;;;;;5032794;28;20120;-70
2022/04/14 00:03:51;;;;;;;16.73;9.57;;;12.20;99.90;;;;;;5034654;28;20171;-70
2022/04/14 00:06:17;;;;;;;14.35;9.25;;;12.20;99.90;;;;;;5032900;28;20038;-71
2022/04/14 00:08:43;;;;;;;18.27;11.27;;;;;;;;;;5034501;28;20393;-70
2022/04/14 00:11:08;;;;;;;20.70;10.35;;;12.20;99.90;;;;;;5032405;28;20721;-71
2022/04/14 00:13:34;;;;;;;19.05;11.20;;;12.00;99.90;;;;;;5033128;28;20545;-70
2022/04/14 00:16:00;;;;;;;19.33;11.10;;;12.10;99.90;;;;;;5032737;28;20052;-70
2022/04/14 00:18:26;;;;;;;15.70;11.23;;;;;;;;;;5034328;28;20416;-71
2022/04/14 00:20:52;;;;;;;18.38;11.45;;;;;;;;;;5048672;28;20567;-70
2022/04/14 00:23:18;;;;;;;18.42;10.45;;;;;;;;;;5034201;28;20120;-72
2022/04/14 00:25:44;;;;;;;15.73;10.30;;;;;;;;;;5049307;28;20554;-70
2022/04/14 00:28:10;;;;;;;20.08;10.00;;;;;;;;;;5034052;28;20037;-70
2022/04/14 00:30:35;;;;;;;19.52;10.60;;;11.90;99.90;;;;;;5048839;28;20041;-71
2022/04/14 00:33:01;;;;;;;20.27;11.55;;;11.90;99.90;;;;;;5033861;28;20170;-70
2022/04/14 00:35:27;;;;;;;20.50;12.02;;;11.80;99.90;;;;;;5033861;28;20514;-70
2022/04/14 00:37:52;;;;;;;20.67;10.85;;;11.90;99.90;;;;;;5015966;28;20041;-71
2022/04/14 00:40:18;;;;;;;23.48;11.40;;;11.80;99.90;;;;;;5031921;28;20048;-70
2022/04/14 00:42:44;;;;;;;20.27;10.80;;;11.70;99.90;;;;;;5033738;28;20084;-70
2022/04/14 00:45:09;;;;;;;20.55;11.73;;;11.70;99.90;;;;;;5032625;28;20045;-70
2022/04/14 00:47:36;;;;;;;20.15;11.80;;;11.70;99.90;;;;;;5032257;28;20041;-71
2022/04/14 00:50:03;;;;;;;19.73;10.95;;;11.70;99.90;;;;;;5031926;28;20040;-70
2022/04/14 00:52:28;;;;;;;19.98;12.40;;;11.60;99.90;;;;;;5032305;28;20037;-70
2022/04/14 00:54:54;;;;;;;23.13;11.10;;;11.40;99.90;;;;;;5033571;28;20067;-70
2022/04/14 00:57:20;;;;;;;23.25;12.18;;;;;;;;;;5032368;28;20469;-71
2022/04/14 00:59:46;;;;;;;18.95;10.70;;;;;;;;;;5047831;28;20064;-72
2022/04/14 01:02:12;;;;;;;19.10;10.27;;;;;;;;;;5033274;28;20081;-71
2022/04/14 01:04:38;;;;;;;21.58;11.70;;;11.40;99.90;;;;;;5048707;28;20119;-71
2022/04/14 01:07:08;;;;;;;20.10;11.55;;;11.20;99.90;;;;;;5065829;22;20554;-68
2022/04/14 01:09:34;;;;;;;20.77;11.40;;;11.30;99.90;;;;;;5052205;28;20400;-67
2022/04/14 01:12:01;;;;;;;19.15;11.65;;;;;;;;;;5052842;28;20522;-67
2022/04/14 01:14:32;;;;;;;16.25;11.10;;;11.50;99.90;;;;;;5034739;28;20037;-68
2022/04/14 01:17:00;;;;;;;19.63;11.65;;;11.30;99.90;;;;;;5052888;28;20047;-67
2022/04/14 01:19:27;;;;;;;19.48;11.90;;;11.20;99.90;;;;;;5052049;28;20083;-68
2022/04/14 01:22:09;;;;;;;20.30;11.88;;;11.30;99.90;;;;;;5018136;28;20125;-67
2022/04/14 01:24:35;;;;;;;18.17;12.90;;;11.20;99.90;;;;;;5032984;28;20041;-69
2022/04/14 01:27:01;;;;;;;19.38;11.02;;;;;;;;;;5052406;28;20051;-68
2022/04/14 01:29:28;;;;;;;22.27;12.85;;;11.10;99.90;;;;;;5052005;28;20395;-68
2022/04/14 01:31:55;;;;;;;23.48;12.73;;;10.90;99.90;;;;;;5052611;28;20185;-68
2022/04/14 01:34:21;;;;;;;20.15;13.57;;;;;;;;;;5052408;28;20055;-68
2022/04/14 01:36:47;;;;;;;19.00;12.00;;;11.20;99.90;;;;;;5052297;28;20041;-67
2022/04/14 01:39:14;;;;;;;21.13;12.55;;;11.10;99.90;;;;;;5051440;28;20041;-67
2022/04/14 01:41:41;;;;;;;21.25;13.18;;;11.30;99.90;;;;;;5052423;28;20041;-67
2022/04/14 01:44:07;;;;;;;23.00;13.32;;;11.00;99.90;;;;;;5052238;28;20037;-67
2022/04/14 01:46:33;;;;;;;20.55;12.20;;;10.90;99.90;;;;;;5052185;28;20040;-68
2022/04/14 01:49:02;;;;;;;25.90;13.32;;;;;;;;;;5051640;28;20403;-67
2022/04/14 01:51:28;;;;;;;23.27;12.65;;;10.90;99.90;;;;;;5051769;28;20509;-67
2022/04/14 01:53:54;;;;;;;20.90;12.93;;;10.70;99.90;;;;;;5034412;28;20040;-67
2022/04/14 01:56:21;;;;;;;21.92;13.52;;;;;;;;;;5034036;28;20048;-67
2022/04/14 01:58:47;;;;;;;25.98;13.40;;;;;;;;;;5051813;28;20521;-68
2022/04/14 02:01:13;;;;;;;24.25;14.27;;;;;;;;;;5016600;28;20067;-67
2022/04/14 02:03:39;;;;;;;24.75;15.00;;;;;;;;;;5051943;28;20534;-68
2022/04/14 02:06:05;;;;;;;22.13;14.02;;;;;;;;;;5033655;28;20037;-67
2022/04/14 02:08:31;;;;;;;26.73;15.35;;;;;;;;;;5033869;28;20044;-67
2022/04/14 02:10:57;;;;;;;22.17;13.90;;;;;;;;;;5051092;28;20098;-68
2022/04/14 02:13:23;;;;;;;26.55;14.10;;;;;;;;;;5033755;28;20076;-68
2022/04/14 02:15:49;;;;;;;23.08;13.82;;;;;;;;;;5033717;28;20052;-68
2022/04/14 02:18:15;;;;;;;31.40;15.30;;;;;;;;;;5051622;28;20041;-67
2022/04/14 02:20:41;;;;;;;26.42;16.45;;;;;;;;;;5050702;28;20072;-67
2022/04/14 02:23:07;;;;;;;27.75;15.75;;;10.60;99.90;;;;;;5051785;28;20037;-67
2022/04/14 02:25:32;;;;;;;29.13;15.65;;;10.50;99.90;;;;;;5051701;28;20071;-67
2022/04/14 02:27:58;;;;;;;25.50;15.40;;;10.60;99.90;;;;;;5051514;28;20040;-68
2022/04/14 02:30:23;;;;;;;24.45;16.13;;;10.40;99.90;;;;;;5032788;28;20037;-68
2022/04/14 02:32:49;;;;;;;29.88;16.35;;;10.70;99.90;;;;;;5051460;28;20041;-68
2022/04/14 02:35:14;;;;;;;24.88;15.77;;;10.40;99.90;;;;;;5033507;28;20040;-68
2022/04/14 02:37:40;;;;;;;28.30;16.92;;;10.50;99.90;;;;;;5051544;28;20040;-67
2022/04/14 02:40:06;;;;;;;29.02;17.42;;;10.30;99.90;;;;;;5050729;28;20522;-67
2022/04/14 02:42:32;;;;;;;24.85;16.42;;;;;;;;;;5051201;28;20052;-67
2022/04/14 02:44:58;;;;;;;30.05;16.45;;;10.30;99.90;;;;;;5051386;28;20033;-67
2022/04/14 02:47:24;;;;;;;25.00;16.60;;;;;;;;;;5051297;28;20037;-68
2022/04/14 02:49:50;;;;;;;27.40;17.13;;;;;;;;;;5032786;28;20179;-67
2022/04/14 02:52:16;;;;;;;31.85;17.63;;;;;;;;;;5032905;28;20051;-67
2022/04/14 02:54:42;;;;;;;26.23;17.42;;;;;;;;;;5033515;28;20094;-68
2022/04/14 02:57:09;;;;;;;26.48;17.75;;;10.20;99.90;;;;;;5051122;28;20044;-67
2022/04/14 02:59:35;;;;;;;26.27;18.10;;;;;;;;;;5032619;28;20036;-67
2022/04/14 03:02:01;;;;;;;28.70;18.02;;;;;;;;;;5033119;28;20044;-68
2022/04/14 03:04:29;;;;;;;28.38;18.77;;;10.70;99.90;;;;;;5033261;28;20033;-67
2022/04/14 03:06:55;;;;;;;31.88;18.23;;;10.00;99.90;;;;;;5051018;28;20052;-68
2022/04/14 03:09:21;;;;;;;28.55;18.95;;;10.20;99.90;;;;;;5032764;28;20033;-68
2022/04/14 03:11:47;;;;;;;30.30;19.80;;;;;;;;;;5033319;28;20049;-68
2022/04/14 03:14:13;;;;;;;26.10;18.95;;;;;;;;;;5057372;28;20072;-68
2022/04/14 03:16:39;;;;;;;31.45;19.67;;;;;;;;;;5038452;28;20327;-68
2022/04/14 03:19:05;;;;;;;37.15;21.67;;;;;;;;;;5054388;28;20063;-68
2022/04/14 03:21:31;;;;;;;34.08;20.80;;;;;;;;;;5036685;28;20048;-67
2022/04/14 03:23:56;;;;;;;35.20;20.80;;;;;;;;;;5037213;28;20036;-67
2022/04/14 03:26:22;;;;;;;34.13;20.73;;;;;;;;;;5054837;28;20032;-67
2022/04/14 03:28:48;;;;;;;29.67;19.10;;;9.90;99.90;;;;;;5037116;28;20037;-67
2022/04/14 03:31:14;;;;;;;33.85;21.70;;;;;;;;;;5019621;28;20079;-68
2022/04/14 03:33:40;;;;;;;34.90;20.50;;;;;;;;;;5020228;28;20487;-68
2022/04/14 03:36:06;;;;;;;36.40;20.85;;;;;;;;;;5037006;28;20132;-68
2022/04/14 03:38:32;;;;;;;33.63;20.70;;;;;;;;;;5036715;28;20051;-68
2022/04/14 03:40:59;;;;;;;30.65;20.40;;;9.90;99.90;;;;;;5054099;28;20386;-68
2022/04/14 03:43:25;;;;;;;32.05;19.08;;;;;;;;;;5055007;28;20041;-67
2022/04/14 03:45:51;;;;;;;33.53;19.25;;;9.50;99.90;;;;;;5054868;28;20072;-67
2022/04/14 03:48:17;;;;;;;33.92;20.65;;;;;;;;;;5054297;28;20076;-68
2022/04/14 03:50:43;;;;;;;33.75;20.08;;;;;;;;;;5053918;28;20041;-68
2022/04/14 03:53:09;;;;;;;29.70;20.80;;;9.50;99.90;;;;;;5036693;28;20047;-68
2022/04/14 03:55:35;;;;;;;36.30;22.13;;;9.60;99.90;;;;;;5036520;28;20052;-67
2022/04/14 03:58:00;;;;;;;33.40;20.42;;;9.70;99.90;;;;;;5054180;28;20044;-67
2022/04/14 04:00:26;;;;;;;30.85;19.33;;;9.40;99.90;;;;;;5053477;28;20033;-67
2022/04/14 04:02:51;;;;;;;30.63;19.35;;;9.60;99.90;;;;;;5054043;28;20040;-67
2022/04/14 04:05:17;;;;;;;33.83;20.85;;;9.50;99.90;;;;;;5036215;28;20048;-67
2022/04/14 04:07:42;;;;;;;34.45;20.98;;;9.50;99.90;;;;;;5053767;28;20133;-67
2022/04/14 04:10:08;;;;;;;37.38;20.63;;;9.60;99.90;;;;;;5035607;28;20041;-67
2022/04/14 04:12:36;;;;;;;29.38;18.70;;;9.50;99.90;;;;;;5053919;28;20129;-67
2022/04/14 04:15:02;;;;;;;35.65;20.75;;;9.60;99.90;;;;;;5036032;28;20095;-68
2022/04/14 04:17:27;;;;;;;36.33;21.73;;;9.40;99.90;;;;;;5053721;28;20152;-67
2022/04/14 04:19:55;;;;;;;32.65;20.45;;;9.50;99.90;;;;;;5053276;28;20522;-67
2022/04/14 04:22:20;;;;;;;33.17;20.98;;;9.30;99.90;;;;;;5053787;28;20075;-68
2022/04/14 04:24:46;;;;;;;34.35;20.42;;;9.40;99.90;;;;;;5019234;28;20487;-67
2022/04/14 04:27:11;;;;;;;31.85;19.63;;;9.30;99.90;;;;;;5019208;28;20037;-67
2022/04/14 04:29:39;;;;;;;38.60;20.63;;;;;;;;;;5034891;28;20119;-67
2022/04/14 04:32:06;;;;;;;34.75;22.00;;;;;;;;;;5053501;28;20075;-68
2022/04/14 04:34:32;;;;;;;32.20;20.67;;;;;;;;;;5053761;28;20044;-67
2022/04/14 04:36:58;;;;;;;38.92;23.67;;;;;;;;;;5053465;28;20215;-67
2022/04/14 04:39:24;;;;;;;38.35;21.17;;;;;;;;;;5034710;28;20070;-67
2022/04/14 04:41:50;;;;;;;29.55;20.83;;;;;;;;;;5053292;28;20052;-67
2022/04/14 04:44:16;;;;;;;34.20;21.92;;;;;;;;;;5035722;28;20077;-67
2022/04/14 04:46:42;;;;;;;39.35;22.40;;;;;;;;;;5053159;28;20523;-67
2022/04/14 04:49:07;;;;;;;36.60;21.10;;;9.40;99.90;;;;;;5034845;28;20044;-66
2022/04/14 04:51:33;;;;;;;36.28;22.48;;;;;;;;;;5019280;28;20041;-67
2022/04/14 04:53:59;;;;;;;41.97;22.63;;;9.20;99.90;;;;;;5035552;28;20120;-68
2022/04/14 04:56:25;;;;;;;36.25;22.08;;;;;;;;;;5018662;28;20063;-68
2022/04/14 04:58:51;;;;;;;34.08;21.02;;;;;;;;;;5034725;28;20567;-67
2022/04/14 05:01:17;;;;;;;34.88;22.20;;;9.20;99.90;;;;;;5052528;28;20074;-67
2022/04/14 05:03:43;;;;;;;34.80;23.15;;;;;;;;;;5035075;28;20036;-68
2022/04/14 05:06:09;;;;;;;39.63;23.42;;;;;;;;;;5052740;28;20041;-67
2022/04/14 05:08:35;;;;;;;35.90;23.60;;;;;;;;;;5035044;28;20037;-67
2022/04/14 05:11:01;;;;;;;41.97;24.77;;;;;;;;;;5052021;28;20043;-67
2022/04/14 05:13:27;;;;;;;37.97;25.05;;;;;;;;;;5052662;28;20076;-67
2022/04/14 05:15:53;;;;;;;40.78;26.35;;;;;;;;;;5034789;28;20041;-67
2022/04/14 05:18:18;;;;;;;44.33;25.40;;;;;;;;;;5052976;28;20094;-67
2022/04/14 05:20:44;;;;;;;43.63;26.52;;;9.20;99.90;;;;;;5034189;28;20052;-67
2022/04/14 05:23:10;;;;;;;42.28;26.40;;;;;;;;;;5053321;28;20040;-68
2022/04/14 05:25:40;;;;;;;52.22;29.08;;;9.30;99.90;;;;;;5036634;28;20040;-67
2022/04/14 05:28:06;;;;;;;47.70;29.67;;;;;;;;;;5053749;28;20036;-67
2022/04/14 05:30:31;;;;;;;49.03;29.20;;;9.40;99.90;;;;;;5051725;28;20049;-67
2022/04/14 05:32:57;;;;;;;51.03;27.92;;;;;;;;;;5052593;28;20402;-67
2022/04/14 05:35:23;;;;;;;45.72;27.70;;;;;;;;;;5051897;28;20033;-67
2022/04/14 05:37:49;;;;;;;46.90;27.45;;;9.60;99.90;;;;;;5052413;28;20037;-67
2022/04/14 05:40:15;;;;;;;45.83;27.63;;;;;;;;;;5051539;28;20037;-67
2022/04/14 05:42:46;;;;;;;51.08;28.20;;;;;;;;;;5017830;28;20080;-68
2022/04/14 05:45:15;;;;;;;48.10;28.38;;;9.60;99.90;;;;;;5034311;28;20037;-67
2022/04/14 05:47:41;;;;;;;49.92;28.80;;;;;;;;;;5051890;28;20064;-67
2022/04/14 05:50:07;;;;;;;43.90;26.77;;;;;;;;;;5051399;28;20043;-66
2022/04/14 05:52:33;;;;;;;43.72;27.42;;;;;;;;;;5022269;28;20274;-67
2022/04/14 05:55:01;;;;;;;42.17;27.50;;;;;;;;;;5021506;28;20041;-67
2022/04/14 05:57:28;;;;;;;45.08;27.63;;;;;;;;;;5042417;28;20526;-67
2022/04/14 05:59:54;;;;;;;46.47;27.58;;;;;;;;;;5036107;28;20060;-68
2022/04/14 06:02:20;;;;;;;41.58;27.77;;;10.20;99.90;;;;;;5040762;28;20037;-67
2022/04/14 06:04:45;;;;;;;42.05;26.75;;;10.10;99.90;;;;;;5025075;28;20147;-66
2022/04/14 06:07:11;;;;;;;42.80;26.38;;;10.30;99.90;;;;;;5018841;28;20037;-67
2022/04/14 06:09:37;;;;;;;44.40;25.80;;;;;;;;;;5020069;28;20036;-67
2022/04/14 06:12:03;;;;;;;44.90;27.60;;;;;;;;;;5042175;28;20072;-65
2022/04/14 06:14:30;;;;;;;43.92;27.70;;;;;;;;;;5046453;28;20044;-68
2022/04/14 06:16:56;;;;;;;44.50;28.13;;;;;;;;;;5034057;28;20051;-68
2022/04/14 06:19:22;;;;;;;41.08;25.20;;;;;;;;;;5022287;28;20045;-68
2022/04/14 06:21:48;;;;;;;42.13;26.55;;;;;;;;;;5026882;28;20045;-68
2022/04/14 06:24:14;;;;;;;41.75;27.23;;;;;;;;;;5046036;28;20032;-64
2022/04/14 06:26:40;;;;;;;41.65;26.33;;;;;;;;;;5039057;28;20036;-65
2022/04/14 06:29:06;;;;;;;45.03;27.08;;;;;;;;;;5030128;28;20052;-68
2022/04/14 06:31:32;;;;;;;45.33;27.05;;;;;;;;;;5037740;28;20429;-68
2022/04/14 06:33:58;;;;;;;49.88;27.75;;;;;;;;;;5041779;28;20095;-68
2022/04/14 06:36:24;;;;;;;41.63;25.40;;;;;;;;;;5025940;28;20103;-68
2022/04/14 06:38:50;;;;;;;44.20;26.13;;;;;;;;;;5031945;28;20074;-67
2022/04/14 06:41:16;;;;;;;40.30;25.40;;;;;;;;;;5031334;28;20524;-68
2022/04/14 06:43:42;;;;;;;45.85;27.10;;;;;;;;;;5031103;28;20041;-68
2022/04/14 06:46:08;;;;;;;44.28;25.20;;;;;;;;;;5051194;28;20043;-68
2022/04/14 06:48:34;;;;;;;52.28;27.02;;;11.00;99.90;;;;;;5048943;28;20037;-67
2022/04/14 06:51:00;;;;;;;46.53;27.10;;;;;;;;;;5031653;28;20552;-67
2022/04/14 06:53:26;;;;;;;41.53;26.15;;;;;;;;;;5033373;28;20071;-67
2022/04/14 06:55:53;;;;;;;40.53;25.02;;;;;;;;;;5051748;28;20051;-67
2022/04/14 06:58:19;;;;;;;40.33;25.38;;;;;;;;;;5032635;28;20053;-67
2022/04/14 07:00:45;;;;;;;43.60;25.85;;;11.30;99.90;;;;;;5030058;28;20099;-67
2022/04/14 07:03:11;;;;;;;36.05;23.52;;;;;;;;;;5048499;28;20068;-67
2022/04/14 07:05:37;;;;;;;35.80;24.27;;;11.40;99.90;;;;;;5033188;28;20032;-67
2022/04/14 07:08:03;;;;;;;35.17;23.48;;;11.50;99.90;;;;;;5115271;22;20050;-70
2022/04/14 07:10:28;;;;;;;34.65;22.00;;;11.50;99.90;;;;;;5093000;28;20537;-70
2022/04/14 07:12:55;;;;;;;32.00;21.25;;;11.60;99.90;;;;;;5093455;28;20043;-70
2022/04/14 07:15:21;;;;;;;35.25;21.98;;;11.80;99.90;;;;;;5077069;28;20040;-70
2022/04/14 07:17:47;;;;;;;37.20;20.90;;;;;;;;;;5093386;28;20032;-70
2022/04/14 07:20:13;;;;;;;34.00;21.10;;;11.70;99.90;;;;;;5092501;28;20558;-70
2022/04/14 07:22:46;;;;;;;32.60;20.52;;;12.10;99.90;;;;;;5093234;28;20044;-70
2022/04/14 07:25:13;;;;;;;33.60;21.13;;;12.10;99.90;;;;;;5111644;28;20355;-70
2022/04/14 07:27:39;;;;;;;33.13;20.70;;;12.20;99.90;;;;;;5093268;28;20036;-71
2022/04/14 07:30:05;;;;;;;25.13;18.20;;;12.20;99.90;;;;;;5089226;28;20043;-70
2022/04/14 07:32:43;;;;;;;29.38;19.42;;;12.10;99.90;;;;;;5108485;28;20039;-73
2022/04/14 07:35:09;;;;;;;27.25;18.42;;;12.30;99.90;;;;;;5090063;28;20093;-70
2022/04/14 07:37:36;;;;;;;34.78;18.50;;;12.50;99.90;;;;;;5089478;28;20089;-71
2022/04/14 07:40:03;;;;;;;23.73;16.52;;;12.40;99.90;;;;;;5088843;28;20066;-71
2022/04/14 07:42:33;;;;;;;25.75;16.67;;;12.50;99.90;;;;;;5089822;28;20043;-71
2022/04/14 07:44:59;;;;;;;25.65;16.25;;;12.40;99.90;;;;;;5089740;28;20036;-71
2022/04/14 07:47:24;;;;;;;30.15;17.20;;;12.60;99.90;;;;;;5091001;28;20525;-72
2022/04/14 07:49:50;;;;;;;26.88;16.60;;;12.80;99.90;;;;;;5088982;28;20047;-73
2022/04/14 07:52:15;;;;;;;24.05;15.32;;;12.80;99.90;;;;;;5089498;28;20035;-72
2022/04/14 07:54:41;;;;;;;25.25;15.98;;;13.00;99.90;;;;;;5072816;28;20050;-72
2022/04/14 07:57:06;;;;;;;25.63;16.60;;;13.00;99.90;;;;;;5076184;28;20036;-73
2022/04/14 07:59:32;;;;;;;23.27;15.38;;;13.20;99.90;;;;;;5094071;28;20066;-73
2022/04/14 08:02:00;;;;;;;22.90;13.95;;;13.20;99.90;;;;;;5114822;28;20405;-72
2022/04/14 08:04:26;;;;;;;21.13;13.88;;;13.40;99.90;;;;;;5096769;28;20039;-72
2022/04/14 08:06:52;;;;;;;23.75;14.82;;;13.40;99.90;;;;;;5108216;28;20032;-72
2022/04/14 08:09:18;;;;;;;20.77;14.48;;;13.60;99.90;;;;;;5092446;28;20585;-72
2022/04/14 08:11:43;;;;;;;22.02;14.20;;;13.50;99.90;;;;;;5108905;28;20134;-72
2022/04/14 08:14:09;;;;;;;22.63;14.93;;;13.60;99.90;;;;;;5079621;28;20089;-72
2022/04/14 08:16:35;;;;;;;24.05;15.93;;;13.70;99.90;;;;;;5096325;28;20501;-73
2022/04/14 08:19:00;;;;;;;25.80;16.13;;;13.80;99.90;;;;;;5095783;28;20043;-73
2022/04/14 08:21:26;;;;;;;23.95;16.85;;;13.80;99.90;;;;;;5079177;28;20040;-73
2022/04/14 08:23:53;;;;;;;26.38;15.48;;;13.80;99.90;;;;;;5096114;28;20096;-72
2022/04/14 08:26:18;;;;;;;23.27;16.70;;;14.00;99.90;;;;;;5096124;28;20043;-74
2022/04/14 08:28:45;;;;;;;22.05;14.50;;;14.10;99.90;;;;;;5079236;28;20044;-72
2022/04/14 08:31:11;;;;;;;23.90;14.23;;;14.10;99.90;;;;;;5095392;28;20045;-74
2022/04/14 08:33:37;;;;;;;21.98;14.82;;;14.30;99.90;;;;;;5079133;28;20054;-73
2022/04/14 08:36:12;;;;;;;20.58;13.85;;;14.30;99.90;;;;;;5079095;28;20475;-73
2022/04/14 08:38:39;;;;;;;23.75;14.45;;;14.40;99.90;;;;;;5114284;28;20084;-72
2022/04/14 08:41:07;;;;;;;19.33;13.88;;;14.60;99.90;;;;;;5106417;28;20048;-72
2022/04/14 08:43:35;;;;;;;21.45;13.93;;;14.60;99.90;;;;;;5092492;28;20032;-74
2022/04/14 08:46:03;;;;;;;23.95;15.43;;;14.60;99.90;;;;;;5092597;28;20040;-72
2022/04/14 08:48:29;;;;;;;22.05;14.40;;;14.90;99.90;;;;;;5094683;28;20553;-72
2022/04/14 08:50:55;;;;;;;19.60;13.45;;;15.30;99.90;;;;;;5091252;28;20127;-72
2022/04/14 08:53:26;;;;;;;22.50;13.55;;;15.00;99.90;;;;;;5092536;28;20028;-72
2022/04/14 08:55:52;;;;;;;18.50;10.70;;;13.00;99.90;;;;;;5093662;28;20036;-72
2022/04/14 08:58:19;;;;;;;17.90;12.18;;;14.90;99.90;;;;;;5095332;28;20036;-72
2022/04/14 09:00:45;;;;;;;21.65;12.95;;;15.40;99.90;;;;;;5113047;28;20075;-72
2022/04/14 09:03:17;;;;;;;18.10;11.07;;;15.00;99.90;;;;;;5078436;28;20569;-73
2022/04/14 09:05:43;;;;;;;19.02;10.95;;;15.20;99.90;;;;;;5095403;28;20063;-74
2022/04/14 09:08:08;;;;;;;16.38;10.27;;;15.20;99.90;;;;;;5095004;28;20124;-70
2022/04/14 09:10:36;;;;;;;15.45;10.20;;;15.20;99.90;;;;;;5111817;28;20104;-70
2022/04/14 09:13:02;;;;;;;17.02;9.75;;;15.10;99.90;;;;;;5113618;28;20119;-73
2022/04/14 09:15:27;;;;;;;15.10;9.88;;;15.40;99.90;;;;;;5078546;28;20075;-70
2022/04/14 09:17:54;;;;;;;15.80;10.55;;;15.30;99.90;;;;;;5078096;28;20528;-70
2022/04/14 09:20:34;;;;;;;16.75;10.20;;;15.40;99.90;;;;;;5075086;28;20044;-71
2022/04/14 09:23:25;;;;;;;13.45;9.73;;;15.40;99.90;;;;;;5091260;28;20028;-71
2022/04/14 09:26:11;;;;;;;18.73;9.52;;;15.60;99.90;;;;;;5113326;28;20031;-71
2022/04/14 09:28:38;;;;;;;15.93;8.68;;;15.60;99.90;;;;;;5094917;28;20115;-72
2022/04/14 09:31:09;;;;;;;14.20;8.70;;;15.70;99.90;;;;;;5112490;28;20170;-70
2022/04/14 09:33:36;;;;;;;13.35;8.30;;;15.90;99.90;;;;;;5095062;28;20086;-71
2022/04/14 09:36:08;;;;;;;13.27;8.43;;;16.00;99.90;;;;;;5094733;28;20077;-72
2022/04/14 09:39:07;;;;;;;14.45;9.20;;;15.90;99.90;;;;;;5077928;28;20043;-72
2022/04/14 09:41:40;;;;;;;13.45;8.32;;;15.90;99.90;;;;;;5113168;28;20043;-72
2022/04/14 09:44:09;;;;;;;13.10;8.63;;;16.10;99.90;;;;;;5077761;28;20100;-71
2022/04/14 09:46:46;;;;;;;12.90;8.35;;;16.00;99.90;;;;;;5094558;28;20044;-72
2022/04/14 09:49:14;;;;;;;13.52;7.90;;;16.20;99.90;;;;;;5093835;28;20039;-72
2022/04/14 09:51:42;;;;;;;11.35;7.00;;;16.20;99.90;;;;;;5112993;28;20115;-72
2022/04/14 09:54:12;;;;;;;14.27;7.40;;;16.20;99.90;;;;;;5091038;28;20182;-72
2022/04/14 09:56:58;;;;;;;10.35;7.07;;;16.30;99.90;;;;;;5090785;28;20047;-71
2022/04/14 09:59:25;;;;;;;11.50;5.22;;;16.10;99.90;;;;;;5090010;28;20506;-72
2022/04/14 10:02:12;;;;;;;13.55;5.85;;;16.00;99.90;;;;;;5095115;28;20092;-71
2022/04/14 10:04:41;;;;;;;10.50;6.18;;;16.20;99.90;;;;;;5108103;28;20075;-72
2022/04/14 10:07:11;;;;;;;8.82;4.68;;;16.20;99.90;;;;;;5094408;28;20035;-71
2022/04/14 10:09:40;;;;;;;8.40;5.43;;;16.20;99.90;;;;;;5094389;28;20083;-72
2022/04/14 10:12:26;;;;;;;7.85;5.82;;;16.30;99.90;;;;;;5094072;28;20032;-73
2022/04/14 10:15:02;;;;;;;12.98;6.72;;;16.60;99.90;;;;;;5094488;28;20488;-71
2022/04/14 10:17:30;;;;;;;10.80;6.22;;;16.40;99.90;;;;;;5077217;28;20039;-74
2022/04/14 10:19:56;;;;;;;13.23;5.70;;;16.40;99.90;;;;;;5091517;28;20058;-72
2022/04/14 10:22:22;;;;;;;7.40;4.78;;;16.30;99.90;;;;;;5076746;28;20043;-73
2022/04/14 10:24:50;;;;;;;9.23;3.80;;;16.70;99.90;;;;;;5094322;28;20393;-72
2022/04/14 10:27:19;;;;;;;5.50;3.58;;;16.90;99.90;;;;;;5077044;28;20043;-72
2022/04/14 10:29:46;;;;;;;6.25;3.22;;;17.00;99.90;;;;;;5073039;28;20052;-71
2022/04/14 10:32:12;;;;;;;9.15;2.78;;;16.90;99.90;;;;;;5088925;28;20032;-73
2022/04/14 10:34:38;;;;;;;8.20;3.40;;;16.80;99.90;;;;;;5082186;28;20092;-68
2022/04/14 10:37:10;;;;;;;6.10;2.75;;;16.60;99.90;;;;;;5101500;27;20062;-71
2022/04/14 10:39:41;;;;;;;5.75;3.08;;;16.90;99.90;;;;;;5122670;27;20069;-71
2022/04/14 10:42:09;;;;;;;7.80;2.67;;;16.70;99.90;;;;;;5092456;28;20112;-72
2022/04/14 10:44:47;;;;;;;5.95;2.90;;;16.90;99.90;;;;;;5098929;28;20063;-72
2022/04/14 10:47:33;;;;;;;8.45;3.75;;;17.00;99.90;;;;;;5109595;28;20165;-72
2022/04/14 10:49:59;;;;;;;8.85;3.33;;;16.80;99.90;;;;;;5109584;28;20337;-69
2022/04/14 10:52:26;;;;;;;10.88;3.65;;;17.00;99.90;;;;;;5128456;28;20074;-72
2022/04/14 10:55:00;;;;;;;9.27;3.20;;;17.00;99.90;;;;;;5102386;28;20054;-72
2022/04/14 10:57:40;;;;;;;9.70;4.53;;;16.90;99.90;;;;;;5074906;28;20039;-73
2022/04/14 11:00:32;;;;;;;8.68;3.88;;;17.00;99.90;;;;;;5052975;28;20171;-72
2022/04/14 11:03:02;;;;;;;8.73;3.60;;;16.90;99.90;;;;;;5093787;28;20035;-70
2022/04/14 11:05:43;;;;;;;9.27;3.00;;;17.10;99.90;;;;;;5074772;28;20047;-71
2022/04/14 11:08:29;;;;;;;8.80;3.65;;;17.00;99.90;;;;;;5071493;28;20047;-70
2022/04/14 11:11:14;;;;;;;8.70;3.15;;;17.20;99.90;;;;;;5073194;28;20046;-71
2022/04/14 11:13:55;;;;;;;6.47;2.83;;;17.50;99.90;;;;;;5056528;28;20520;-71
2022/04/14 11:16:41;;;;;;;6.60;3.97;;;16.90;99.90;;;;;;5071967;28;20135;-73
2022/04/14 11:19:19;;;;;;;10.23;4.22;;;17.20;99.90;;;;;;5058222;28;20046;-73
2022/04/14 11:22:06;;;;;;;15.63;5.88;;;17.30;99.90;;;;;;5099956;28;20047;-71
2022/04/14 11:24:40;;;;;;;6.65;4.03;;;17.40;99.90;;;;;;5089957;28;20088;-75
2022/04/14 11:27:17;;;;;;;4.97;2.80;;;17.40;99.90;;;;;;5090611;28;20485;-72
2022/04/14 11:29:47;;;;;;;7.43;3.30;;;17.40;99.90;;;;;;5107157;28;20035;-71
2022/04/14 11:32:14;;;;;;;7.43;3.47;;;17.10;99.90;;;;;;5092116;28;20039;-71
2022/04/14 11:34:40;;;;;;;6.78;3.58;;;17.30;99.90;;;;;;5095252;28;20135;-71
2022/04/14 11:37:44;;;;;;;7.60;3.28;;;16.90;99.90;;;;;;5096366;28;20039;-72
2022/04/14 11:40:23;;;;;;;7.75;3.08;;;17.30;99.90;;;;;;5083942;28;20039;-69
2022/04/14 11:42:51;;;;;;;10.10;3.38;;;17.40;99.90;;;;;;5102609;28;20043;-70
2022/04/14 11:45:24;;;;;;;8.68;3.67;;;17.40;99.90;;;;;;5102850;28;20044;-73
2022/04/14 11:47:51;;;;;;;6.88;3.50;;;17.40;99.90;;;;;;5085919;28;20124;-71
2022/04/14 11:50:25;;;;;;;8.75;3.65;;;17.40;99.90;;;;;;5084259;28;20062;-72
2022/04/14 11:52:58;;;;;;;11.40;5.60;;;17.30;99.90;;;;;;5080758;28;20050;-71
2022/04/14 11:55:36;;;;;;;;;;;17.40;99.90;;;;;;5111597;28;20039;-72
2022/04/14 11:58:19;;;;;;;12.43;3.90;;;17.30;99.90;;;;;;5084763;28;19923;-71
2022/04/14 12:00:50;;;;;;;9.85;4.32;;;17.50;99.90;;;;;;5078818;28;20513;-71
2022/04/14 12:03:29;;;;;;;11.38;5.20;;;17.20;99.90;;;;;;5089932;28;20032;-74
2022/04/14 12:05:55;;;;;;;5.38;3.10;;;17.40;99.90;;;;;;5087709;28;20066;-71
2022/04/14 12:08:21;;;;;;;5.97;3.05;;;17.30;99.90;;;;;;5084685;28;20040;-71
2022/04/14 12:10:47;;;;;;;7.43;3.22;;;17.40;99.90;;;;;;5084505;28;20047;-71
2022/04/14 12:13:13;;;;;;;6.70;3.03;;;17.60;99.90;;;;;;5069356;28;20114;-71
2022/04/14 12:15:38;;;;;;;6.03;3.30;;;17.50;99.90;;;;;;5084414;28;20077;-71
2022/04/14 12:18:08;;;;;;;4.75;2.90;;;17.50;99.90;;;;;;5099618;28;20036;-72
2022/04/14 12:20:40;;;;;;;7.65;2.95;;;17.60;99.90;;;;;;5109632;28;20118;-72
2022/04/14 12:23:09;;;;;;;4.80;2.70;;;17.50;99.90;;;;;;5080462;28;20044;-71
2022/04/14 12:25:37;;;;;;;8.60;3.47;;;17.80;99.90;;;;;;5101250;28;20393;-72
2022/04/14 12:28:03;;;;;;;4.80;2.63;;;17.90;99.90;;;;;;5083005;28;20093;-72
2022/04/14 12:30:30;;;;;;;5.60;3.05;;;17.50;99.90;;;;;;5106189;28;20089;-70
2022/04/14 12:33:06;;;;;;;7.68;2.97;;;17.70;99.90;;;;;;5060275;28;20035;-71
2022/04/14 12:35:42;;;;;;;6.68;2.88;;;17.70;99.90;;;;;;5063808;28;20051;-70
2022/04/14 12:38:11;;;;;;;7.00;3.08;;;17.70;99.90;;;;;;5096847;28;20031;-69
2022/04/14 12:40:37;;;;;;;8.77;3.78;;;17.80;99.90;;;;;;5068887;28;20110;-70
2022/04/14 12:43:06;;;;;;;9.63;3.78;;;17.70;99.90;;;;;;5083585;28;20118;-72
2022/04/14 12:45:37;;;;;;;7.50;3.30;;;17.90;99.90;;;;;;5060928;28;20032;-72
2022/04/14 12:48:05;;;;;;;6.18;2.40;;;17.90;99.90;;;;;;5067425;28;20090;-72
2022/04/14 12:50:31;;;;;;;8.88;3.03;;;17.50;99.90;;;;;;5090025;28;20468;-72
2022/04/14 12:52:57;;;;;;;8.38;3.45;;;17.60;99.90;;;;;;5101129;28;20110;-72
2022/04/14 12:55:28;;;;;;;8.32;3.35;;;17.30;99.90;;;;;;5101717;28;20039;-72
2022/04/14 12:58:10;;;;;;;7.82;3.65;;;17.70;99.90;;;;;;5092298;28;20392;-72
2022/04/14 13:00:36;;;;;;;7.07;3.95;;;17.50;99.90;;;;;;5100786;28;20038;-72
2022/04/14 13:03:05;;;;;;;7.55;3.03;;;17.50;99.90;;;;;;5102422;28;20044;-74
2022/04/14 13:05:37;;;;;;;7.95;3.17;;;17.10;99.90;;;;;;5085853;28;20035;-74
2022/04/14 13:08:03;;;;;;;6.90;3.10;;;17.40;99.90;;;;;;5083919;22;20111;-77